Time;durP1;ratioP1;P1;durP2;ratioP2;P2;SDS_P1;SDS_P2;PMS_P1;PMS_P2;Temp;Humidity;BMP_temperature;BMP_pressure;BME280_temperature;BME280_humidity;BME280_pressure;Samples;Min_cycle;Max_cycle;Signal;HPM_P1;HPM_P2
2023/08/23 00:02:22;;;;;;;5.90;5.10;;;17.80;99.90;;;;;;5042771;28;20033;-77
2023/08/23 00:04:50;;;;;;;6.87;4.50;;;17.80;99.90;;;;;;5005065;28;1156519;-77
2023/08/23 00:07:15;;;;;;;5.30;4.60;;;17.80;99.90;;;;;;5042592;28;20057;-77
2023/08/23 00:09:41;;;;;;;5.82;5.22;;;17.70;99.90;;;;;;5033920;28;20048;-78
2023/08/23 00:12:07;;;;;;;5.68;5.03;;;17.70;99.90;;;;;;5047972;28;20033;-78
2023/08/23 00:14:33;;;;;;;6.43;5.15;;;17.70;99.90;;;;;;5046375;28;20448;-78
2023/08/23 00:16:58;;;;;;;6.55;5.30;;;17.70;99.90;;;;;;5048665;28;20120;-77
2023/08/23 00:19:24;;;;;;;6.07;4.95;;;17.60;99.90;;;;;;5036018;28;20506;-77
2023/08/23 00:21:50;;;;;;;6.30;5.10;;;17.60;99.90;;;;;;5044538;28;20044;-77
2023/08/23 00:24:15;;;;;;;8.00;5.80;;;17.60;99.90;;;;;;5039565;28;20446;-77
2023/08/23 00:26:41;;;;;;;9.90;6.70;;;17.50;99.90;;;;;;5042946;28;20132;-77
2023/08/23 00:29:07;;;;;;;9.80;6.70;;;17.50;99.90;;;;;;5041544;28;20060;-77
2023/08/23 00:31:33;;;;;;;6.97;6.28;;;17.50;99.90;;;;;;5043806;28;20403;-77
2023/08/23 00:33:58;;;;;;;7.35;6.30;;;17.50;99.90;;;;;;5038287;28;20124;-78
2023/08/23 00:36:24;;;;;;;6.88;6.18;;;17.50;99.90;;;;;;5045879;28;20037;-77
2023/08/23 00:38:50;;;;;;;9.60;6.47;;;17.50;99.90;;;;;;5045960;28;20033;-77
2023/08/23 00:41:16;;;;;;;7.18;6.32;;;17.40;99.90;;;;;;5035543;28;20534;-77
2023/08/23 00:43:41;;;;;;;8.77;6.35;;;17.40;99.90;;;;;;5049159;28;20109;-77
2023/08/23 00:46:07;;;;;;;6.32;5.72;;;17.40;99.90;;;;;;5047622;28;20041;-77
2023/08/23 00:48:33;;;;;;;7.40;5.82;;;17.40;99.90;;;;;;5044505;28;20130;-77
2023/08/23 00:50:59;;;;;;;7.03;6.10;;;17.40;99.90;;;;;;5039332;28;20080;-78
2023/08/23 00:53:25;;;;;;;7.88;6.50;;;17.40;99.90;;;;;;5048060;28;20067;-78
2023/08/23 00:55:51;;;;;;;8.18;6.53;;;17.30;99.90;;;;;;5063727;28;20036;-78
2023/08/23 00:58:18;;;;;;;8.43;5.57;;;17.30;99.90;;;;;;5059492;28;20068;-78
2023/08/23 01:00:45;;;;;;;9.32;5.32;;;17.30;99.90;;;;;;5045439;28;20037;-78
2023/08/23 01:03:10;;;;;;;6.90;6.18;;;17.20;99.90;;;;;;5033138;28;20504;-78
2023/08/23 01:05:48;;;;;;;8.75;5.90;;;17.20;99.90;;;;;;5042919;28;20080;-78
2023/08/23 01:08:23;;;;;;;6.85;6.15;;;17.20;99.90;;;;;;5040756;28;20041;-78
2023/08/23 01:10:58;;;;;;;8.48;7.30;;;17.20;99.90;;;;;;5042218;28;20052;-79
2023/08/23 01:13:33;;;;;;;10.40;7.38;;;17.20;99.90;;;;;;5040426;28;20072;-79
2023/08/23 01:15:59;;;;;;;9.10;7.32;;;17.20;99.90;;;;;;5037129;28;20049;-78
2023/08/23 01:18:28;;;;;;;8.70;7.90;;;17.10;99.90;;;;;;5054633;28;20547;-78
2023/08/23 01:20:54;;;;;;;8.93;8.05;;;17.10;99.90;;;;;;5041998;28;20037;-78
2023/08/23 01:23:21;;;;;;;8.00;7.30;;;17.10;99.90;;;;;;5031639;28;20124;-77
2023/08/23 01:25:48;;;;;;;;;;;17.10;99.90;;;;;;5047457;28;20041;-78
2023/08/23 01:28:14;;;;;;;8.55;7.65;;;17.00;99.90;;;;;;5040068;28;19920;-78
2023/08/23 01:30:40;;;;;;;9.02;7.88;;;17.00;99.90;;;;;;5047225;28;20116;-78
2023/08/23 01:33:10;;;;;;;8.25;7.45;;;16.90;99.90;;;;;;5050106;28;20041;-78
2023/08/23 01:35:47;;;;;;;7.70;7.10;;;16.90;99.90;;;;;;5044354;28;20048;-78
2023/08/23 01:38:16;;;;;;;7.32;6.65;;;16.90;99.90;;;;;;5044060;28;20041;-78
2023/08/23 01:40:42;;;;;;;7.05;6.38;;;16.90;99.90;;;;;;5039111;28;20411;-78
2023/08/23 01:43:09;;;;;;;7.77;7.07;;;16.80;99.90;;;;;;5042354;28;20052;-78
2023/08/23 01:45:38;;;;;;;7.70;7.00;;;16.80;99.90;;;;;;5056764;28;20306;-78
2023/08/23 01:48:04;;;;;;;8.30;7.50;;;16.80;99.90;;;;;;5041594;28;20052;-78
2023/08/23 01:50:30;;;;;;;8.95;8.05;;;16.80;99.90;;;;;;5041505;28;20813;-78
2023/08/23 01:52:57;;;;;;;6.72;6.05;;;16.80;99.90;;;;;;5031451;28;20038;-78
2023/08/23 01:55:23;;;;;;;8.35;5.72;;;16.70;99.90;;;;;;5040928;28;20047;-78
2023/08/23 01:57:49;;;;;;;6.70;6.05;;;16.70;99.90;;;;;;5040911;28;20068;-78
2023/08/23 02:00:15;;;;;;;6.30;5.40;;;16.70;99.90;;;;;;5044096;28;20392;-78
2023/08/23 02:02:41;;;;;;;8.15;6.88;;;16.60;99.90;;;;;;5037133;28;20033;-78
2023/08/23 02:05:06;;;;;;;7.53;6.63;;;16.60;99.90;;;;;;5047975;28;20450;-78
2023/08/23 02:07:32;;;;;;;7.82;7.13;;;16.60;99.90;;;;;;5057486;28;20120;-78
2023/08/23 02:09:58;;;;;;;7.70;6.60;;;16.60;99.90;;;;;;5043466;28;20041;-78
2023/08/23 02:12:23;;;;;;;7.82;6.40;;;16.60;99.90;;;;;;5040357;28;20051;-78
2023/08/23 02:14:49;;;;;;;6.90;6.20;;;16.60;99.90;;;;;;5037232;28;20136;-78
2023/08/23 02:17:15;;;;;;;7.30;6.55;;;16.70;99.90;;;;;;5033185;28;20061;-77
2023/08/23 02:19:41;;;;;;;6.93;6.18;;;16.70;99.90;;;;;;5041041;28;20472;-78
2023/08/23 02:22:06;;;;;;;5.93;5.32;;;16.70;99.90;;;;;;5041492;28;20049;-78
2023/08/23 02:24:32;;;;;;;5.85;5.28;;;16.60;99.90;;;;;;5039638;28;20040;-78
2023/08/23 02:26:58;;;;;;;8.77;7.97;;;16.60;99.90;;;;;;5035466;28;20466;-78
2023/08/23 02:29:23;;;;;;;9.55;8.55;;;16.60;99.90;;;;;;5040639;28;20372;-78
2023/08/23 02:31:49;;;;;;;7.85;7.00;;;16.60;99.90;;;;;;5040818;28;20043;-79
2023/08/23 02:34:15;;;;;;;9.63;8.73;;;16.50;99.90;;;;;;5040875;28;20127;-78
2023/08/23 02:36:40;;;;;;;9.30;8.40;;;16.50;99.90;;;;;;5042795;28;20037;-78
2023/08/23 02:39:06;;;;;;;9.38;8.50;;;16.50;99.90;;;;;;5042826;28;20059;-79
2023/08/23 02:41:32;;;;;;;9.65;8.75;;;16.50;99.90;;;;;;5051019;28;20045;-78
2023/08/23 02:43:57;;;;;;;11.02;9.88;;;16.50;99.90;;;;;;5033329;28;20045;-78
2023/08/23 02:46:23;;;;;;;10.38;9.38;;;16.40;99.90;;;;;;5044790;28;20114;-78
2023/08/23 02:48:49;;;;;;;9.02;8.13;;;16.40;99.90;;;;;;5039960;28;20408;-78
2023/08/23 02:51:14;;;;;;;9.27;7.32;;;16.40;99.90;;;;;;5043906;28;20080;-78
2023/08/23 02:53:40;;;;;;;7.32;6.57;;;16.40;99.90;;;;;;5052106;28;20045;-78
2023/08/23 02:56:06;;;;;;;9.95;7.03;;;16.40;99.90;;;;;;5039637;28;20052;-78
2023/08/23 02:58:31;;;;;;;11.25;6.63;;;16.30;99.90;;;;;;5046662;28;20045;-78
2023/08/23 03:00:57;;;;;;;6.57;5.95;;;16.30;99.90;;;;;;5048647;28;20037;-78
2023/08/23 03:03:23;;;;;;;7.25;6.55;;;16.30;99.90;;;;;;5045146;28;20041;-78
2023/08/23 03:05:54;;;;;;;7.60;6.90;;;16.20;99.90;;;;;;5049029;28;20057;-78
2023/08/23 03:08:20;;;;;;;7.55;6.80;;;16.20;99.90;;;;;;5047668;28;20542;-78
2023/08/23 03:10:46;;;;;;;8.10;7.20;;;16.20;99.90;;;;;;5047280;28;20045;-78
2023/08/23 03:13:12;;;;;;;9.35;7.57;;;16.10;99.90;;;;;;5049325;28;20041;-79
2023/08/23 03:15:37;;;;;;;8.57;7.68;;;16.20;99.90;;;;;;5053698;28;20389;-79
2023/08/23 03:18:03;;;;;;;9.18;7.72;;;16.10;99.90;;;;;;5041761;28;20095;-78
2023/08/23 03:20:29;;;;;;;11.10;8.85;;;16.20;99.90;;;;;;5049825;28;20132;-78
2023/08/23 03:22:54;;;;;;;12.48;10.30;;;16.10;99.90;;;;;;5055168;28;20064;-78
2023/08/23 03:25:20;;;;;;;11.00;9.85;;;16.10;99.90;;;;;;5050620;28;20524;-78
2023/08/23 03:27:52;;;;;;;12.00;9.77;;;16.20;99.90;;;;;;5046524;28;20045;-78
2023/08/23 03:30:18;;;;;;;11.35;10.20;;;16.10;99.90;;;;;;5038842;28;20037;-78
2023/08/23 03:32:44;;;;;;;11.37;10.27;;;16.10;99.90;;;;;;5041956;28;20052;-79
2023/08/23 03:35:10;;;;;;;13.75;10.07;;;16.10;99.90;;;;;;5044170;28;20041;-78
2023/08/23 03:37:35;;;;;;;11.75;10.13;;;16.10;99.90;;;;;;5043596;28;20045;-79
2023/08/23 03:40:02;;;;;;;10.63;9.50;;;16.00;99.90;;;;;;5045715;28;20514;-78
2023/08/23 03:42:28;;;;;;;9.85;8.60;;;16.10;99.90;;;;;;5043395;28;20049;-80
2023/08/23 03:44:53;;;;;;;9.80;8.80;;;16.00;99.90;;;;;;5042810;28;20053;-79
2023/08/23 03:47:19;;;;;;;9.75;8.88;;;16.00;99.90;;;;;;5040885;28;20076;-79
2023/08/23 03:49:45;;;;;;;10.55;9.45;;;16.00;99.90;;;;;;5045277;28;20084;-79
2023/08/23 03:52:10;;;;;;;15.32;11.35;;;16.00;99.90;;;;;;5049146;28;20135;-79
2023/08/23 03:54:36;;;;;;;17.65;11.13;;;16.00;99.90;;;;;;5046984;28;20040;-79
2023/08/23 03:57:02;;;;;;;25.02;13.93;;;16.00;99.90;;;;;;5049019;28;20045;-79
2023/08/23 03:59:28;;;;;;;18.52;14.30;;;16.00;99.90;;;;;;5046826;28;20111;-79
2023/08/23 04:01:53;;;;;;;15.80;12.07;;;16.00;99.90;;;;;;5044864;28;20174;-79
2023/08/23 04:04:19;;;;;;;15.32;12.60;;;16.00;99.90;;;;;;5035117;28;20053;-80
2023/08/23 04:06:44;;;;;;;14.95;12.25;;;16.00;99.90;;;;;;5044305;28;20499;-80
2023/08/23 04:09:10;;;;;;;14.88;12.35;;;16.00;99.90;;;;;;5045003;28;20140;-80
2023/08/23 04:11:36;;;;;;;27.33;16.05;;;16.10;99.90;;;;;;5046461;28;20044;-80
2023/08/23 04:14:02;;;;;;;17.63;15.07;;;16.10;99.90;;;;;;5043038;28;20063;-80
2023/08/23 04:16:28;;;;;;;16.77;15.00;;;16.10;99.90;;;;;;5034904;28;20536;-80
2023/08/23 04:18:54;;;;;;;29.73;14.80;;;16.10;99.90;;;;;;5039401;28;20050;-80
2023/08/23 04:21:20;;;;;;;21.42;16.40;;;16.10;99.90;;;;;;5045434;28;20052;-80
2023/08/23 04:23:46;;;;;;;35.40;16.40;;;16.00;99.90;;;;;;5037127;28;20404;-80
2023/08/23 04:26:11;;;;;;;58.25;16.38;;;16.00;99.90;;;;;;5047867;28;20033;-79
2023/08/23 04:28:37;;;;;;;26.52;14.10;;;16.00;99.90;;;;;;5060446;28;20051;-80
2023/08/23 04:31:03;;;;;;;28.92;14.57;;;16.00;99.90;;;;;;5048054;28;20483;-79
2023/08/23 04:33:29;;;;;;;14.93;13.27;;;16.00;99.90;;;;;;5042237;28;20052;-79
2023/08/23 04:35:55;;;;;;;17.30;14.05;;;16.00;99.90;;;;;;5037639;28;20116;-79
2023/08/23 04:38:20;;;;;;;15.02;13.52;;;16.00;99.90;;;;;;5045119;28;20053;-79
2023/08/23 04:40:46;;;;;;;15.25;13.77;;;16.10;99.90;;;;;;5041195;28;20037;-79
2023/08/23 04:43:11;;;;;;;17.52;14.82;;;16.10;99.90;;;;;;5038692;28;20048;-79
2023/08/23 04:45:38;;;;;;;15.30;13.90;;;16.10;99.90;;;;;;5040232;28;20040;-79
2023/08/23 04:48:05;;;;;;;15.13;13.73;;;16.10;99.90;;;;;;5043588;28;20037;-79
2023/08/23 04:50:33;;;;;;;15.30;13.70;;;16.10;99.90;;;;;;5043775;28;20049;-79
2023/08/23 04:52:59;;;;;;;13.95;12.55;;;16.10;99.90;;;;;;5046973;28;20422;-80
2023/08/23 04:55:25;;;;;;;14.00;12.70;;;16.10;99.90;;;;;;5061530;28;20045;-80
2023/08/23 04:57:50;;;;;;;14.75;13.35;;;16.20;99.90;;;;;;5048323;28;20120;-80
2023/08/23 05:00:16;;;;;;;14.43;13.23;;;16.20;99.90;;;;;;5040061;28;20041;-80
2023/08/23 05:02:42;;;;;;;14.27;13.02;;;16.20;99.90;;;;;;5046793;28;20040;-79
2023/08/23 05:05:07;;;;;;;14.43;13.02;;;16.20;99.90;;;;;;5036412;28;20108;-75
2023/08/23 05:07:36;;;;;;;13.25;12.13;;;16.20;99.90;;;;;;5042155;28;20049;-80
2023/08/23 05:10:04;;;;;;;14.70;13.30;;;16.20;99.90;;;;;;5027211;28;20115;-80
2023/08/23 05:12:31;;;;;;;14.73;13.52;;;16.30;99.90;;;;;;5043966;28;20106;-80
2023/08/23 05:14:57;;;;;;;14.65;13.25;;;16.30;99.90;;;;;;5029954;28;20083;-80
2023/08/23 05:17:24;;;;;;;14.35;13.05;;;16.30;99.90;;;;;;5045336;28;20505;-79
2023/08/23 05:19:50;;;;;;;13.63;12.27;;;16.40;99.90;;;;;;5040776;28;20412;-80
2023/08/23 05:22:15;;;;;;;14.65;13.18;;;16.40;99.90;;;;;;5045544;28;20059;-80
2023/08/23 05:24:41;;;;;;;14.10;12.70;;;16.50;99.90;;;;;;5040611;28;20025;-80
2023/08/23 05:27:07;;;;;;;13.38;12.07;;;16.50;99.90;;;;;;5044320;28;20044;-80
2023/08/23 05:29:32;;;;;;;13.77;12.38;;;16.60;99.90;;;;;;5043169;28;20037;-80
2023/08/23 05:31:58;;;;;;;16.92;14.63;;;16.70;99.90;;;;;;5036195;28;20045;-80
2023/08/23 05:34:24;;;;;;;16.52;14.73;;;16.70;99.90;;;;;;5038402;28;20341;-80
2023/08/23 05:36:49;;;;;;;16.90;15.30;;;16.80;99.90;;;;;;5048347;28;20041;-80
2023/08/23 05:39:15;;;;;;;17.23;15.13;;;16.80;99.90;;;;;;5043205;28;20052;-80
2023/08/23 05:41:40;;;;;;;17.40;15.80;;;16.90;99.90;;;;;;5041375;28;20045;-80
2023/08/23 05:44:06;;;;;;;18.73;16.83;;;17.00;99.90;;;;;;5036257;28;20051;-80
2023/08/23 05:46:32;;;;;;;17.58;15.93;;;17.10;99.90;;;;;;5042249;28;20048;-82
2023/08/23 05:48:57;;;;;;;16.92;15.32;;;17.20;99.90;;;;;;5035551;28;20038;-81
2023/08/23 05:51:23;;;;;;;16.55;15.02;;;17.20;99.90;;;;;;5032319;28;20049;-81
2023/08/23 05:53:49;;;;;;;16.05;14.45;;;17.30;99.90;;;;;;5046906;28;20045;-80
2023/08/23 05:56:15;;;;;;;15.93;14.27;;;17.40;99.90;;;;;;5038037;28;20052;-80
2023/08/23 05:58:40;;;;;;;17.02;15.18;;;17.40;99.90;;;;;;5034137;28;20415;-76
2023/08/23 06:01:06;;;;;;;19.42;15.52;;;17.40;99.90;;;;;;5035922;28;20373;-77
2023/08/23 06:03:32;;;;;;;18.02;15.93;;;17.50;99.90;;;;;;5049750;28;20142;-76
2023/08/23 06:05:57;;;;;;;17.65;15.75;;;17.50;99.90;;;;;;5030844;28;20083;-77
2023/08/23 06:08:23;;;;;;;21.45;16.60;;;17.50;99.90;;;;;;5038121;28;20095;-76
2023/08/23 06:10:49;;;;;;;18.55;16.55;;;17.60;99.90;;;;;;5042036;28;20037;-76
2023/08/23 06:13:15;;;;;;;17.58;15.77;;;17.60;99.90;;;;;;5043704;28;20090;-77
2023/08/23 06:15:41;;;;;;;19.02;16.63;;;17.60;99.90;;;;;;5038982;28;20068;-77
2023/08/23 06:18:07;;;;;;;18.40;15.25;;;17.60;99.90;;;;;;5035944;28;20504;-76
2023/08/23 06:20:33;;;;;;;19.75;17.52;;;17.60;99.90;;;;;;5043377;28;20698;-76
2023/08/23 06:22:59;;;;;;;18.70;16.25;;;17.70;99.90;;;;;;5038050;28;20048;-76
2023/08/23 06:25:25;;;;;;;18.25;16.02;;;17.70;99.90;;;;;;5039902;28;20041;-76
2023/08/23 06:27:50;;;;;;;19.70;16.88;;;17.70;99.90;;;;;;5036158;28;20171;-76
2023/08/23 06:30:16;;;;;;;21.65;16.75;;;17.80;99.90;;;;;;5038758;28;20049;-76
2023/08/23 06:32:46;;;;;;;18.25;16.30;;;17.80;99.90;;;;;;5042802;28;20469;-77
2023/08/23 06:35:16;;;;;;;20.80;16.40;;;17.80;99.90;;;;;;5039046;28;20120;-76
2023/08/23 06:37:43;;;;;;;17.58;15.70;;;17.90;99.90;;;;;;5053670;28;20516;-76
2023/08/23 06:40:11;;;;;;;17.90;16.02;;;18.00;99.90;;;;;;5043298;28;20531;-76
2023/08/23 06:42:37;;;;;;;19.55;16.13;;;18.10;99.90;;;;;;5055461;28;20053;-77
2023/08/23 06:45:03;;;;;;;19.42;17.05;;;18.10;99.90;;;;;;5035071;28;20038;-75
2023/08/23 06:47:29;;;;;;;23.13;15.93;;;18.20;99.90;;;;;;5038239;28;20350;-77
2023/08/23 06:49:55;;;;;;;19.00;16.98;;;18.30;99.90;;;;;;5046345;28;20049;-76
2023/08/23 06:52:20;;;;;;;20.23;17.67;;;18.40;99.90;;;;;;5043491;28;20536;-77
2023/08/23 06:54:46;;;;;;;18.80;16.80;;;18.40;99.90;;;;;;5045445;28;20079;-80
2023/08/23 06:57:12;;;;;;;20.13;18.08;;;18.50;99.90;;;;;;5042142;28;20056;-86
2023/08/23 06:59:37;;;;;;;19.98;17.98;;;18.50;99.90;;;;;;5045971;28;20085;-83
2023/08/23 07:02:03;;;;;;;20.83;18.83;;;18.60;99.90;;;;;;5038058;28;20049;-86
2023/08/23 07:04:29;;;;;;;21.50;18.05;;;18.70;99.90;;;;;;5050068;28;20056;-84
2023/08/23 07:06:55;;;;;;;23.10;20.77;;;18.70;99.90;;;;;;5050241;28;20037;-87
2023/08/23 07:09:20;;;;;;;23.20;20.90;;;18.80;99.90;;;;;;5050681;28;20052;-90
2023/08/23 07:11:46;;;;;;;22.80;20.08;;;18.80;99.90;;;;;;5049261;28;20041;-86
2023/08/23 07:14:12;;;;;;;21.40;19.08;;;18.90;99.90;;;;;;5050849;28;20043;-90
2023/08/23 07:16:37;;;;;;;18.45;16.50;;;19.00;99.90;;;;;;5047491;28;20041;-87
2023/08/23 07:19:04;;;;;;;22.20;16.80;;;19.10;99.90;;;;;;5045774;28;20037;-82
2023/08/23 07:21:30;;;;;;;18.55;16.02;;;19.10;99.90;;;;;;5050559;28;20092;-82
2023/08/23 07:23:56;;;;;;;19.75;16.60;;;19.20;99.90;;;;;;5051086;28;20063;-83
2023/08/23 07:26:22;;;;;;;19.10;17.10;;;19.20;99.90;;;;;;5050089;28;20400;-84
2023/08/23 07:28:48;;;;;;;20.92;18.05;;;19.30;99.90;;;;;;5048985;28;20043;-84
2023/08/23 07:31:13;;;;;;;21.33;17.83;;;19.40;99.90;;;;;;5045675;28;20076;-87
2023/08/23 07:33:39;;;;;;;19.38;17.35;;;19.40;99.90;;;;;;5052670;28;20060;-84
2023/08/23 07:36:05;;;;;;;18.02;16.10;;;19.50;99.90;;;;;;5050683;28;20423;-83
2023/08/23 07:38:32;;;;;;;18.05;15.10;;;19.60;99.90;;;;;;5047492;28;20037;-84
2023/08/23 07:40:59;;;;;;;18.42;15.98;;;19.70;99.90;;;;;;5042578;28;20033;-85
2023/08/23 07:43:25;;;;;;;17.55;14.38;;;19.80;99.90;;;;;;5051859;28;20076;-85
2023/08/23 07:45:58;;;;;;;15.77;14.07;;;19.90;99.90;;;;;;5045923;28;20748;-86
2023/08/23 07:48:25;;;;;;;15.02;13.52;;;20.00;99.90;;;;;;5045243;28;20311;-87
2023/08/23 07:50:51;;;;;;;14.85;12.65;;;20.10;99.90;;;;;;5048751;28;20123;-83
2023/08/23 07:53:17;;;;;;;12.93;11.60;;;20.10;99.90;;;;;;5047641;28;20077;-88
2023/08/23 07:55:43;;;;;;;14.43;12.07;;;20.10;99.90;;;;;;5038599;28;20083;-84
2023/08/23 07:58:10;;;;;;;15.00;12.90;;;20.20;99.90;;;;;;5044135;28;20107;-81
2023/08/23 08:00:35;;;;;;;16.20;13.32;;;20.30;99.90;;;;;;5048595;28;20037;-87
2023/08/23 08:03:03;;;;;;;15.63;12.13;;;20.30;99.90;;;;;;5047270;28;20045;-75
2023/08/23 08:05:29;;;;;;;15.38;12.40;;;20.30;99.90;;;;;;5039279;28;20049;-84
2023/08/23 08:07:55;;;;;;;15.87;12.37;;;20.40;99.90;;;;;;5064010;28;20455;-85
2023/08/23 08:10:21;;;;;;;17.33;12.30;;;20.50;99.90;;;;;;5046104;28;20458;-79
2023/08/23 08:12:47;;;;;;;13.02;11.73;;;20.50;99.90;;;;;;5049894;28;20044;-79
2023/08/23 08:15:12;;;;;;;12.50;11.18;;;20.50;99.90;;;;;;5038056;28;20091;-80
2023/08/23 08:17:39;;;;;;;12.95;11.25;;;20.60;99.90;;;;;;5050478;28;20094;-80
2023/08/23 08:20:08;;;;;;;9.60;8.23;;;20.60;99.90;;;;;;5050464;28;20049;-80
2023/08/23 08:22:34;;;;;;;9.20;7.72;;;20.70;99.90;;;;;;5034183;28;20037;-80
2023/08/23 08:25:00;;;;;;;7.80;5.80;;;20.70;99.90;;;;;;5041284;28;20052;-78
2023/08/23 08:27:26;;;;;;;7.90;5.72;;;20.80;99.90;;;;;;5051331;28;20480;-78
2023/08/23 08:29:52;;;;;;;5.78;4.90;;;20.80;99.90;;;;;;5065954;28;20055;-78
2023/08/23 08:32:17;;;;;;;10.00;6.88;;;20.90;99.90;;;;;;5050493;28;20099;-78
2023/08/23 08:34:43;;;;;;;9.43;7.50;;;20.90;99.90;;;;;;5050035;28;20037;-78
2023/08/23 08:37:09;;;;;;;7.68;6.38;;;21.00;99.90;;;;;;5052641;28;20055;-78
2023/08/23 08:39:35;;;;;;;6.60;5.60;;;21.00;99.90;;;;;;5052880;28;20132;-80
2023/08/23 08:42:00;;;;;;;8.02;5.43;;;21.10;99.90;;;;;;5049498;28;20083;-80
2023/08/23 08:44:26;;;;;;;7.82;6.03;;;21.10;99.90;;;;;;5047849;28;20127;-80
2023/08/23 08:46:52;;;;;;;8.48;6.22;;;21.20;99.90;;;;;;5054965;28;20432;-80
2023/08/23 08:49:18;;;;;;;9.48;6.63;;;21.30;99.90;;;;;;5050386;28;20033;-80
2023/08/23 08:51:48;;;;;;;9.30;7.40;;;21.40;99.90;;;;;;5053030;28;20033;-80
2023/08/23 08:54:19;;;;;;;9.88;6.80;;;21.50;99.90;;;;;;5050510;28;20045;-80
2023/08/23 08:56:47;;;;;;;8.15;5.88;;;21.50;99.90;;;;;;5043349;28;20053;-79
2023/08/23 08:59:16;;;;;;;8.77;6.82;;;21.60;99.90;;;;;;5062250;28;20044;-80
2023/08/23 09:01:44;;;;;;;7.00;5.35;;;21.60;99.90;;;;;;5043898;28;20163;-77
2023/08/23 09:04:11;;;;;;;6.15;4.30;;;21.60;99.90;;;;;;5048995;28;20048;-74
2023/08/23 09:06:40;;;;;;;5.82;4.90;;;21.70;99.90;;;;;;5047251;28;20906;-77
2023/08/23 09:09:06;;;;;;;7.85;5.55;;;21.80;99.90;;;;;;5042330;28;20477;-76
2023/08/23 09:11:33;;;;;;;7.32;5.43;;;21.80;99.90;;;;;;5036171;28;20127;-77
2023/08/23 09:13:59;;;;;;;8.20;5.30;;;21.90;99.90;;;;;;5046906;28;20045;-77
2023/08/23 09:16:25;;;;;;;7.30;5.10;;;22.00;99.90;;;;;;5050721;28;20110;-77
2023/08/23 09:18:51;;;;;;;8.02;5.20;;;22.10;99.90;;;;;;5045329;28;20104;-75
2023/08/23 09:21:24;;;;;;;6.22;4.72;;;22.10;99.90;;;;;;5039878;28;20042;-75
2023/08/23 09:23:50;;;;;;;6.60;5.35;;;22.20;99.90;;;;;;5041304;28;20052;-76
2023/08/23 09:26:16;;;;;;;6.53;4.85;;;22.30;99.90;;;;;;5057344;28;20476;-75
2023/08/23 09:28:42;;;;;;;6.25;5.10;;;22.40;99.90;;;;;;5043537;28;20120;-76
2023/08/23 09:31:10;;;;;;;6.40;4.30;;;22.50;99.90;;;;;;5049518;28;20040;-76
2023/08/23 09:33:38;;;;;;;4.40;3.78;;;22.50;99.90;;;;;;5048574;28;20063;-74
2023/08/23 09:36:03;;;;;;;7.20;4.60;;;22.50;99.90;;;;;;5044890;28;20044;-77
2023/08/23 09:38:29;;;;;;;7.70;5.00;;;22.60;99.90;;;;;;5033394;28;20091;-77
2023/08/23 09:40:56;;;;;;;6.50;4.63;;;22.70;99.90;;;;;;5047766;28;20052;-77
2023/08/23 09:43:24;;;;;;;9.35;4.43;;;22.70;99.90;;;;;;5039595;28;20053;-76
2023/08/23 09:45:50;;;;;;;5.28;4.18;;;22.80;99.90;;;;;;5032011;28;20073;-74
2023/08/23 09:48:17;;;;;;;7.30;4.60;;;22.80;99.90;;;;;;5046233;28;20104;-75
2023/08/23 09:50:43;;;;;;;6.15;4.38;;;22.80;99.90;;;;;;5046646;28;20124;-75
2023/08/23 09:53:27;;;;;;;8.10;4.93;;;22.90;99.90;;;;;;5046203;28;20064;-75
2023/08/23 09:55:53;;;;;;;6.70;3.80;;;23.00;99.90;;;;;;5034253;28;20128;-72
2023/08/23 09:58:19;;;;;;;5.22;3.90;;;23.00;99.90;;;;;;5048628;28;20535;-73
2023/08/23 10:00:51;;;;;;;5.05;3.67;;;23.10;99.90;;;;;;5042910;28;20044;-75
2023/08/23 10:03:20;;;;;;;6.18;4.10;;;23.10;99.90;;;;;;5040298;28;20037;-74
2023/08/23 10:05:48;;;;;;;8.00;4.20;;;23.20;99.90;;;;;;5048268;28;20690;-74
2023/08/23 10:08:14;;;;;;;5.72;4.20;;;23.20;99.90;;;;;;5048590;28;20044;-74
2023/08/23 10:10:43;;;;;;;6.00;4.18;;;23.30;99.90;;;;;;5053235;28;20041;-74
2023/08/23 10:13:09;;;;;;;9.07;4.65;;;23.30;99.90;;;;;;5060794;28;20501;-76
2023/08/23 10:15:38;;;;;;;6.03;5.30;;;23.40;99.90;;;;;;5050667;28;20044;-76
2023/08/23 10:18:08;;;;;;;6.97;4.45;;;23.50;99.90;;;;;;5053464;28;20101;-75
2023/08/23 10:20:36;;;;;;;5.32;4.63;;;23.50;99.90;;;;;;5047843;28;20123;-74
2023/08/23 10:23:13;;;;;;;5.60;3.20;;;23.50;99.90;;;;;;5041544;28;20044;-74
2023/08/23 10:25:41;;;;;;;5.97;3.78;;;23.60;99.90;;;;;;5050755;28;20098;-74
2023/08/23 10:28:08;;;;;;;7.78;4.15;;;23.60;99.90;;;;;;5053346;28;20037;-74
2023/08/23 10:30:33;;;;;;;5.65;3.80;;;23.70;99.90;;;;;;5041339;28;20163;-75
2023/08/23 10:33:13;;;;;;;7.00;4.68;;;23.70;99.90;;;;;;5043915;28;20132;-79
2023/08/23 10:35:41;;;;;;;7.57;3.58;;;23.80;99.90;;;;;;5050976;28;20488;-80
2023/08/23 10:38:08;;;;;;;8.38;4.05;;;23.80;99.90;;;;;;5043330;28;20049;-81
2023/08/23 10:40:35;;;;;;;8.27;4.80;;;23.90;99.90;;;;;;5065016;28;20049;-79
2023/08/23 10:43:10;;;;;;;6.15;3.47;;;24.00;99.90;;;;;;5050569;28;20037;-79
2023/08/23 10:46:08;;;;;;;6.72;3.28;;;24.10;99.90;;;;;;5051787;28;20052;-80
2023/08/23 10:48:34;;;;;;;5.07;3.40;;;24.20;99.90;;;;;;5026754;28;20057;-82
2023/08/23 10:51:01;;;;;;;5.77;3.57;;;24.20;99.90;;;;;;5044840;28;20135;-78
2023/08/23 10:53:27;;;;;;;6.40;3.30;;;24.20;99.90;;;;;;5047512;28;20072;-75
2023/08/23 10:55:53;;;;;;;5.47;3.03;;;24.20;99.90;;;;;;5046071;28;20994;-78
2023/08/23 10:58:18;;;;;;;4.07;2.50;;;24.30;99.90;;;;;;5047894;28;20044;-83
2023/08/23 11:00:50;;;;;;;4.78;2.90;;;24.30;99.90;;;;;;5049466;28;20083;-82
2023/08/23 11:03:17;;;;;;;6.38;2.92;;;24.40;99.90;;;;;;5044790;28;20048;-81
2023/08/23 11:05:44;;;;;;;7.43;3.28;;;24.40;99.90;;;;;;5046863;28;20068;-81
2023/08/23 11:08:10;;;;;;;4.38;3.13;;;24.50;99.90;;;;;;5050838;28;20057;-81
2023/08/23 11:10:37;;;;;;;6.35;3.83;;;24.50;99.90;;;;;;5051566;28;20404;-81
2023/08/23 11:13:03;;;;;;;4.63;3.10;;;24.60;99.90;;;;;;5038186;28;20045;-81
2023/08/23 11:15:29;;;;;;;4.72;2.70;;;24.60;99.90;;;;;;5043507;28;20054;-80
2023/08/23 11:17:55;;;;;;;9.10;3.90;;;24.70;99.90;;;;;;5047131;28;20647;-80
2023/08/23 11:20:21;;;;;;;5.15;2.85;;;24.80;99.90;;;;;;5050542;28;20037;-80
2023/08/23 11:22:47;;;;;;;4.22;3.22;;;24.90;99.90;;;;;;5061981;28;20194;-80
2023/08/23 11:25:13;;;;;;;4.50;2.70;;;24.90;99.90;;;;;;5047447;28;20041;-81
2023/08/23 11:27:39;;;;;;;5.33;2.63;;;25.00;99.90;;;;;;5048746;28;20137;-81
2023/08/23 11:30:05;;;;;;;5.60;2.75;;;25.00;99.90;;;;;;5046695;28;20131;-81
2023/08/23 11:32:31;;;;;;;4.28;2.33;;;25.10;99.90;;;;;;5044971;28;20135;-80
2023/08/23 11:34:57;;;;;;;4.38;1.85;;;25.10;99.90;;;;;;5051783;28;20132;-80
2023/08/23 11:37:23;;;;;;;5.28;2.03;;;25.20;99.90;;;;;;5052343;28;20045;-80
2023/08/23 11:39:56;;;;;;;4.40;2.27;;;25.20;99.90;;;;;;5050716;28;20049;-80
2023/08/23 11:42:23;;;;;;;4.20;2.10;;;25.30;99.90;;;;;;5046878;28;20033;-80
2023/08/23 11:44:49;;;;;;;;;;;25.40;99.90;;;;;;5050982;28;20053;-80
2023/08/23 11:47:15;;;;;;;6.37;2.50;;;25.50;99.90;;;;;;5063935;28;19929;-80
2023/08/23 11:49:40;;;;;;;3.80;1.40;;;25.60;99.90;;;;;;5042406;28;20041;-80
2023/08/23 11:52:06;;;;;;;4.47;2.05;;;25.70;99.90;;;;;;5047422;28;20048;-80
2023/08/23 11:54:31;;;;;;;4.25;1.80;;;25.80;99.90;;;;;;5048735;28;20544;-81
2023/08/23 11:57:00;;;;;;;4.00;2.55;;;25.80;99.90;;;;;;5049237;28;20041;-80
2023/08/23 11:59:26;;;;;;;2.97;2.00;;;25.80;99.90;;;;;;5051659;28;20051;-80
2023/08/23 12:01:52;;;;;;;5.50;1.90;;;25.80;99.90;;;;;;5047714;28;20037;-80
2023/08/23 12:04:17;;;;;;;5.85;2.28;;;25.60;99.90;;;;;;5046186;28;20151;-80
2023/08/23 12:06:43;;;;;;;3.43;1.93;;;25.60;99.90;;;;;;5041894;28;20492;-81
2023/08/23 12:09:10;;;;;;;7.03;2.08;;;25.60;99.90;;;;;;5042096;28;20052;-83
2023/08/23 12:11:36;;;;;;;;;;;25.60;99.90;;;;;;5047982;28;20047;-76
2023/08/23 12:14:04;;;;;;;6.93;2.20;;;25.60;99.90;;;;;;5044077;28;20003;-78
2023/08/23 12:16:31;;;;;;;5.72;2.38;;;25.70;99.90;;;;;;5040599;28;20061;-76
2023/08/23 12:18:57;;;;;;;2.60;1.80;;;25.80;99.90;;;;;;5043006;28;20041;-73
2023/08/23 12:21:23;;;;;;;3.63;1.90;;;26.00;99.90;;;;;;5048517;28;20151;-74
2023/08/23 12:23:48;;;;;;;4.53;2.10;;;26.10;99.90;;;;;;5045699;28;20076;-74
2023/08/23 12:26:14;;;;;;;6.13;1.93;;;26.10;99.90;;;;;;5045873;28;20055;-74
2023/08/23 12:28:40;;;;;;;2.90;2.10;;;26.00;99.90;;;;;;5049276;28;20567;-74
2023/08/23 12:31:06;;;;;;;3.90;2.03;;;25.90;99.90;;;;;;5054598;28;20151;-74
2023/08/23 12:33:32;;;;;;;2.60;2.00;;;25.90;99.90;;;;;;5046701;28;20040;-74
2023/08/23 12:35:57;;;;;;;3.40;1.70;;;25.70;99.90;;;;;;5058401;28;20037;-73
2023/08/23 12:38:23;;;;;;;4.20;1.93;;;25.70;99.90;;;;;;5046338;28;20047;-74